Time;durP1;ratioP1;P1;durP2;ratioP2;P2;SDS_P1;SDS_P2;PMS_P1;PMS_P2;Temp;Humidity;BMP_temperature;BMP_pressure;BME280_temperature;BME280_humidity;BME280_pressure;Samples;Min_cycle;Max_cycle;Signal;HPM_P1;HPM_P2
2021/05/11 00:00:30;;;;;;;2.60;2.27;;;15.10;56.00;;;;;;5114040;27;39580;-77
2021/05/11 00:02:57;;;;;;;2.20;2.00;;;15.00;56.10;;;;;;5104542;27;37648;-75
2021/05/11 00:05:33;;;;;;;2.90;2.60;;;15.00;56.30;;;;;;5109959;27;38774;-76
2021/05/11 00:08:05;;;;;;;3.20;3.00;;;15.00;56.30;;;;;;5105347;27;36998;-77
2021/05/11 00:10:35;;;;;;;3.47;2.27;;;14.80;56.10;;;;;;5112823;27;39658;-77
2021/05/11 00:13:05;;;;;;;2.57;2.37;;;14.80;56.30;;;;;;5117824;27;38669;-77
2021/05/11 00:15:50;;;;;;;3.73;3.43;;;14.80;56.40;;;;;;5100289;27;38341;-77
2021/05/11 00:18:23;;;;;;;3.40;3.10;;;14.80;56.80;;;;;;5114762;27;37718;-77
2021/05/11 00:20:52;;;;;;;5.80;4.07;;;14.70;57.00;;;;;;5120901;27;39292;-76
2021/05/11 00:23:20;;;;;;;3.83;3.53;;;14.70;56.90;;;;;;5102578;28;39310;-76
2021/05/11 00:25:49;;;;;;;4.40;4.00;;;14.70;56.90;;;;;;5134865;27;38418;-76
2021/05/11 00:28:31;;;;;;;3.67;3.37;;;14.70;56.90;;;;;;5140945;27;38618;-76
2021/05/11 00:31:01;;;;;;;3.93;3.63;;;14.70;57.20;;;;;;5134228;27;39199;-76
2021/05/11 00:33:32;;;;;;;4.63;4.23;;;14.70;57.40;;;;;;5119089;28;38570;-76
2021/05/11 00:35:59;;;;;;;4.90;4.50;;;14.70;57.50;;;;;;5137634;28;38192;-76
2021/05/11 00:38:27;;;;;;;5.20;4.73;;;14.70;57.40;;;;;;5134734;27;38692;-76
2021/05/11 00:40:56;;;;;;;4.73;4.33;;;14.70;57.50;;;;;;5127824;27;41556;-77
2021/05/11 00:43:29;;;;;;;5.37;4.87;;;14.60;57.40;;;;;;5124783;27;39325;-76
2021/05/11 00:45:57;;;;;;;5.23;4.73;;;14.70;57.50;;;;;;5119230;27;37163;-77
2021/05/11 00:48:24;;;;;;;5.37;4.87;;;14.70;57.40;;;;;;5110626;27;36034;-77
2021/05/11 00:50:56;;;;;;;5.50;4.93;;;14.70;57.60;;;;;;5128928;27;39782;-77
2021/05/11 00:53:23;;;;;;;5.73;5.23;;;14.70;57.60;;;;;;5126996;28;39215;-77
2021/05/11 00:55:51;;;;;;;4.60;4.20;;;14.70;57.60;;;;;;5123520;27;38677;-76
2021/05/11 00:58:21;;;;;;;5.60;5.07;;;14.70;57.60;;;;;;5112817;28;35399;-76
2021/05/11 01:00:48;;;;;;;6.07;5.33;;;14.80;57.70;;;;;;5129026;27;39949;-77
2021/05/11 01:03:16;;;;;;;5.90;5.40;;;14.70;58.30;;;;;;5115999;28;37085;-76
2021/05/11 01:05:43;;;;;;;5.07;4.67;;;14.70;57.60;;;;;;5120490;27;36879;-76
2021/05/11 01:08:13;;;;;;;5.57;5.03;;;14.60;57.60;;;;;;5139474;27;38506;-76
2021/05/11 01:10:40;;;;;;;5.10;4.70;;;14.60;57.60;;;;;;5141907;28;41087;-77
2021/05/11 01:13:08;;;;;;;5.70;5.27;;;14.60;57.60;;;;;;5134878;28;39212;-77
2021/05/11 01:15:38;;;;;;;5.60;5.10;;;14.60;57.80;;;;;;5131017;28;38198;-77
2021/05/11 01:18:08;;;;;;;5.83;5.33;;;14.60;57.80;;;;;;5117928;28;38978;-77
2021/05/11 01:20:38;;;;;;;5.30;4.90;;;14.60;58.00;;;;;;5106308;28;39299;-77
2021/05/11 01:25:57;;;;;;;4.90;4.50;;;14.60;57.90;;;;;;5111769;27;38679;-76
2021/05/11 01:28:28;;;;;;;5.33;4.93;;;14.60;57.90;;;;;;5114424;28;37985;-76
2021/05/11 01:50:14;;;;;;;6.93;6.33;;;14.10;58.90;;;;;;5123968;27;37386;-76
2021/05/11 01:52:59;;;;;;;7.10;6.50;;;14.10;59.20;;;;;;5129738;27;39668;-77
2021/05/11 02:23:05;;;;;;;9.37;8.53;;;14.20;59.30;;;;;;5132203;27;38003;-76
2021/05/11 02:25:34;;;;;;;9.40;8.40;;;14.20;59.40;;;;;;5134584;27;40131;-75
2021/05/11 02:28:02;;;;;;;10.67;9.50;;;14.10;59.40;;;;;;5134173;27;38952;-76
2021/05/11 02:30:31;;;;;;;11.70;9.87;;;14.10;59.40;;;;;;5135487;27;38783;-76
2021/05/11 02:32:58;;;;;;;9.43;8.57;;;14.00;59.40;;;;;;5133477;27;35850;-76
2021/05/11 02:35:25;;;;;;;8.57;7.80;;;13.90;59.60;;;;;;5131447;27;40749;-75
2021/05/11 02:37:52;;;;;;;7.80;7.10;;;13.90;59.90;;;;;;5122145;27;38844;-76
2021/05/11 02:40:22;;;;;;;8.43;7.63;;;13.80;60.10;;;;;;5132134;27;38329;-76
2021/05/11 02:42:53;;;;;;;8.87;8.07;;;13.90;60.60;;;;;;5134669;27;38079;-76
2021/05/11 02:45:21;;;;;;;8.03;7.43;;;13.90;60.60;;;;;;5117421;27;38162;-76
2021/05/11 02:47:49;;;;;;;9.23;8.00;;;14.00;60.70;;;;;;5113774;27;39186;-76
2021/05/11 02:50:17;;;;;;;7.70;7.07;;;14.00;60.60;;;;;;5130998;27;37734;-76
2021/05/11 02:52:45;;;;;;;9.00;8.23;;;14.10;60.40;;;;;;5141882;27;37257;-76
2021/05/11 02:55:12;;;;;;;9.57;8.57;;;14.10;60.90;;;;;;5143772;27;39625;-76
2021/05/11 02:57:39;;;;;;;10.00;9.10;;;14.10;60.20;;;;;;5129412;27;39836;-76
2021/05/11 03:00:09;;;;;;;9.70;8.80;;;14.10;60.20;;;;;;5135240;27;37763;-76
2021/05/11 03:02:39;;;;;;;11.17;10.20;;;14.10;60.20;;;;;;5134503;27;37020;-75
2021/05/11 03:05:08;;;;;;;10.43;9.50;;;14.10;60.00;;;;;;5127629;27;39658;-76
2021/05/11 03:07:35;;;;;;;11.77;10.77;;;14.30;60.00;;;;;;5132641;27;38923;-77
2021/05/11 03:10:03;;;;;;;11.80;10.70;;;14.30;59.90;;;;;;5140360;27;38108;-77
2021/05/11 03:12:30;;;;;;;10.83;9.90;;;14.30;59.80;;;;;;5128993;27;37746;-77
2021/05/11 03:14:57;;;;;;;11.47;10.47;;;14.30;59.80;;;;;;5100620;27;39736;-76
2021/05/11 03:17:24;;;;;;;10.60;9.43;;;14.30;59.70;;;;;;5129729;27;37413;-77
2021/05/11 03:19:55;;;;;;;12.40;11.20;;;14.30;59.70;;;;;;5131678;27;37547;-77
2021/05/11 03:22:22;;;;;;;10.87;9.77;;;14.40;59.80;;;;;;5114985;27;36815;-76
2021/05/11 03:24:49;;;;;;;11.17;10.07;;;14.40;59.30;;;;;;5115849;27;38218;-76
2021/05/11 03:27:18;;;;;;;11.17;8.50;;;14.40;59.30;;;;;;5137695;27;38847;-76
2021/05/11 03:29:45;;;;;;;10.30;8.60;;;14.40;59.20;;;;;;5130616;27;37782;-76
2021/05/11 03:32:12;;;;;;;9.20;8.20;;;14.40;59.20;;;;;;5128623;27;37021;-76
2021/05/11 03:34:43;;;;;;;10.30;9.30;;;14.50;59.00;;;;;;5129223;27;39382;-76
2021/05/11 03:37:11;;;;;;;12.70;9.37;;;14.40;58.90;;;;;;5120826;27;39899;-76
2021/05/11 03:39:42;;;;;;;9.97;8.53;;;14.50;59.10;;;;;;5110189;27;38014;-76
2021/05/11 03:42:16;;;;;;;8.53;7.73;;;14.50;59.10;;;;;;5133996;27;38092;-77
2021/05/11 03:44:46;;;;;;;12.03;9.70;;;14.50;58.90;;;;;;5131165;27;38248;-78
2021/05/11 03:47:20;;;;;;;10.27;9.07;;;14.50;58.90;;;;;;5114035;27;37764;-78
2021/05/11 03:49:49;;;;;;;10.33;8.77;;;14.60;58.80;;;;;;5114825;27;36555;-75
2021/05/11 03:52:17;;;;;;;13.60;10.63;;;14.60;58.70;;;;;;5124001;27;37468;-76
2021/05/11 03:54:44;;;;;;;11.10;9.63;;;14.60;58.40;;;;;;5114124;27;38286;-74
2021/05/11 03:57:12;;;;;;;15.70;10.33;;;14.60;58.50;;;;;;5132452;27;39216;-75
2021/05/11 03:59:39;;;;;;;13.17;10.20;;;14.60;58.40;;;;;;5143428;27;37960;-75
2021/05/11 04:02:06;;;;;;;13.33;11.27;;;14.60;58.50;;;;;;5123663;27;37669;-76
2021/05/11 04:04:33;;;;;;;12.17;10.03;;;14.70;58.40;;;;;;5113462;27;39831;-75
2021/05/11 04:07:04;;;;;;;14.00;11.20;;;14.70;58.40;;;;;;5131914;27;39852;-75
2021/05/11 04:09:37;;;;;;;13.07;10.10;;;14.70;58.30;;;;;;5145744;27;38333;-75
2021/05/11 04:12:26;;;;;;;12.60;10.87;;;14.70;58.30;;;;;;5125634;27;36238;-75
2021/05/11 04:17:44;;;;;;;15.47;12.87;;;14.70;58.30;;;;;;5120245;27;39311;-75
2021/05/11 04:20:13;;;;;;;13.50;10.43;;;14.70;58.10;;;;;;5132368;27;20676;-76
2021/05/11 04:22:40;;;;;;;14.83;10.50;;;14.70;58.10;;;;;;5112943;27;36882;-75
2021/05/11 04:25:09;;;;;;;14.27;11.17;;;14.70;58.10;;;;;;5128142;27;39567;-75
2021/05/11 04:27:35;;;;;;;15.67;11.03;;;14.80;58.00;;;;;;5095233;28;38562;-75
2021/05/11 04:30:04;;;;;;;16.93;11.40;;;14.80;58.20;;;;;;5124721;27;38490;-76
2021/05/11 04:32:32;;;;;;;13.87;9.80;;;14.80;58.00;;;;;;5122247;27;37347;-75
2021/05/11 04:34:59;;;;;;;14.03;10.10;;;14.80;57.80;;;;;;5139879;27;40386;-75
2021/05/11 04:37:26;;;;;;;14.50;10.97;;;14.90;57.80;;;;;;5135210;27;39292;-75
2021/05/11 04:39:54;;;;;;;14.13;10.83;;;14.90;57.80;;;;;;5133442;27;38184;-75
2021/05/11 04:42:22;;;;;;;16.83;11.30;;;14.90;57.80;;;;;;5118346;27;38277;-76
2021/05/11 04:44:50;;;;;;;14.00;11.80;;;14.90;57.80;;;;;;5133734;27;39611;-75
2021/05/11 04:47:19;;;;;;;13.93;10.97;;;14.90;57.80;;;;;;5132504;27;39138;-76
2021/05/11 04:49:47;;;;;;;15.50;11.30;;;15.00;57.90;;;;;;5132398;27;38546;-75
2021/05/11 04:52:14;;;;;;;11.87;9.30;;;15.00;57.50;;;;;;5124517;27;38306;-75
2021/05/11 04:54:44;;;;;;;12.70;10.17;;;15.00;57.50;;;;;;5129161;27;40343;-76
2021/05/11 04:57:11;;;;;;;11.97;9.17;;;15.10;57.60;;;;;;5113950;27;37769;-77
2021/05/11 04:59:39;;;;;;;15.63;10.60;;;15.00;58.10;;;;;;5114542;27;37713;-77
2021/05/11 05:02:06;;;;;;;14.30;10.90;;;15.00;57.40;;;;;;5129951;27;36923;-77
2021/05/11 05:04:36;;;;;;;21.53;11.17;;;15.00;57.40;;;;;;5131967;27;40611;-77
2021/05/11 05:07:03;;;;;;;14.60;11.90;;;15.00;57.40;;;;;;5112075;27;37735;-76
2021/05/11 05:09:30;;;;;;;13.00;9.67;;;15.00;57.60;;;;;;5131657;27;38865;-76
2021/05/11 05:11:57;;;;;;;13.83;9.53;;;15.00;57.60;;;;;;5111762;27;36202;-76
2021/05/11 05:14:26;;;;;;;16.97;10.83;;;15.10;57.60;;;;;;5117722;27;38444;-76
2021/05/11 05:16:54;;;;;;;13.10;9.03;;;15.10;57.20;;;;;;5112926;27;38176;-77
2021/05/11 05:19:21;;;;;;;12.20;9.40;;;15.10;57.10;;;;;;5130114;27;38021;-77
2021/05/11 05:21:48;;;;;;;13.83;9.53;;;15.20;57.20;;;;;;5105058;27;36020;-76
2021/05/11 05:24:18;;;;;;;14.70;9.80;;;15.20;57.10;;;;;;5124589;27;39921;-77
2021/05/11 05:26:50;;;;;;;12.73;9.47;;;15.30;57.20;;;;;;5112371;27;38012;-76
2021/05/11 05:29:17;;;;;;;10.53;8.43;;;15.30;56.60;;;;;;5139991;27;38417;-77
2021/05/11 05:31:44;;;;;;;9.40;7.93;;;15.40;56.60;;;;;;5131099;27;37654;-76
2021/05/11 05:34:15;;;;;;;10.60;9.03;;;15.40;56.60;;;;;;5126311;27;39637;-76
2021/05/11 05:36:42;;;;;;;9.43;7.03;;;15.40;56.50;;;;;;5131380;27;39922;-77
2021/05/11 05:39:09;;;;;;;10.87;7.67;;;15.40;56.40;;;;;;5133874;27;37915;-77
2021/05/11 05:41:36;;;;;;;10.03;7.50;;;15.50;56.30;;;;;;5116826;27;37816;-77
2021/05/11 05:44:06;;;;;;;10.90;8.50;;;15.60;55.90;;;;;;5132919;27;39532;-76
2021/05/11 05:46:33;;;;;;;10.40;7.63;;;15.60;55.80;;;;;;5143734;27;39577;-76
2021/05/11 05:49:00;;;;;;;12.30;7.80;;;15.60;55.90;;;;;;5152399;27;39213;-77
2021/05/11 05:51:29;;;;;;;12.47;7.97;;;15.60;55.60;;;;;;5157777;27;38530;-76
2021/05/11 05:53:58;;;;;;;12.70;9.23;;;15.60;55.60;;;;;;5150509;27;41053;-77
2021/05/11 05:56:28;;;;;;;11.70;8.40;;;15.60;55.70;;;;;;5136601;27;37732;-76
2021/05/11 05:58:55;;;;;;;11.23;9.03;;;15.70;55.60;;;;;;5150571;27;38043;-76
2021/05/11 06:01:27;;;;;;;12.00;8.30;;;15.70;55.50;;;;;;5162447;27;37747;-75
2021/05/11 06:04:09;;;;;;;13.50;6.90;;;15.70;55.30;;;;;;5143540;27;39505;-75
2021/05/11 06:06:37;;;;;;;13.17;8.17;;;15.80;55.30;;;;;;5138322;27;37761;-76
2021/05/11 06:09:11;;;;;;;13.10;8.77;;;15.80;54.90;;;;;;5163274;27;38373;-76
2021/05/11 06:11:42;;;;;;;11.03;8.23;;;15.90;55.00;;;;;;5135593;27;35895;-76
2021/05/11 06:14:15;;;;;;;10.43;7.90;;;15.80;54.90;;;;;;5133534;27;39517;-77
2021/05/11 06:19:29;;;;;;;10.90;8.03;;;15.90;55.30;;;;;;5137701;27;37395;-78
2021/05/11 06:21:57;;;;;;;10.33;8.70;;;15.80;55.10;;;;;;5126625;27;37509;-78
2021/05/11 06:24:24;;;;;;;13.37;8.00;;;15.90;55.10;;;;;;5106807;27;38239;-77
2021/05/11 06:26:52;;;;;;;11.80;8.30;;;15.90;55.30;;;;;;5134867;27;39981;-78
2021/05/11 06:29:21;;;;;;;9.87;7.53;;;15.90;55.80;;;;;;5143366;27;37892;-77
2021/05/11 06:31:49;;;;;;;13.63;8.53;;;15.90;55.10;;;;;;5137443;27;37517;-75
2021/05/11 06:34:16;;;;;;;12.80;8.13;;;15.90;55.10;;;;;;5135706;27;40093;-76
2021/05/11 06:36:43;;;;;;;13.60;9.70;;;16.00;55.30;;;;;;5121400;27;37654;-77
2021/05/11 06:39:13;;;;;;;15.07;9.37;;;16.00;55.10;;;;;;5143099;27;39174;-76
2021/05/11 06:41:43;;;;;;;18.90;13.60;;;16.00;54.90;;;;;;5139278;27;36977;-76
2021/05/11 06:44:14;;;;;;;14.17;10.47;;;16.10;54.70;;;;;;5134651;27;39508;-76
2021/05/11 06:49:41;;;;;;;16.03;9.97;;;16.40;54.70;;;;;;5133813;27;39125;-76
2021/05/11 06:55:13;;;;;;;14.60;10.53;;;16.40;54.00;;;;;;5079546;28;39445;-76
2021/05/11 06:57:40;;;;;;;14.43;10.43;;;16.40;53.80;;;;;;5087971;27;38605;-76
2021/05/11 07:00:13;;;;;;;12.90;9.47;;;16.50;53.70;;;;;;5142855;27;38275;-77
2021/05/11 07:02:40;;;;;;;17.27;11.60;;;16.50;53.40;;;;;;5122208;27;37645;-77
2021/05/11 07:05:08;;;;;;;12.30;9.10;;;16.50;53.40;;;;;;5142606;27;39938;-78
2021/05/11 07:07:36;;;;;;;15.10;9.63;;;16.60;53.50;;;;;;5114911;27;38880;-77
2021/05/11 07:10:14;;;;;;;16.10;9.40;;;16.70;53.50;;;;;;5135416;27;38418;-77
2021/05/11 07:15:30;;;;;;;13.47;8.93;;;16.90;53.10;;;;;;5129828;27;40570;-75
2021/05/11 07:18:14;;;;;;;19.30;9.40;;;17.10;52.70;;;;;;5154186;27;40253;-77
2021/05/11 07:20:45;;;;;;;13.00;8.37;;;17.20;52.50;;;;;;5138088;27;37217;-77
2021/05/11 07:23:16;;;;;;;13.77;8.80;;;17.20;52.10;;;;;;5139795;27;37367;-77
2021/05/11 07:25:50;;;;;;;13.17;9.13;;;17.20;52.00;;;;;;5140516;27;39864;-78
2021/05/11 07:31:12;;;;;;;9.53;7.13;;;17.40;51.40;;;;;;5111279;27;38355;-78
2021/05/11 07:33:42;;;;;;;9.53;7.13;;;17.50;51.30;;;;;;5108936;27;36462;-78
2021/05/11 07:36:10;;;;;;;12.17;8.23;;;17.60;50.40;;;;;;5110350;27;40464;-78
2021/05/11 07:38:38;;;;;;;10.30;7.70;;;17.70;50.40;;;;;;5091441;28;38356;-77
2021/05/11 07:41:05;;;;;;;10.57;8.13;;;17.80;50.30;;;;;;5122984;27;37265;-77
2021/05/11 07:43:36;;;;;;;15.60;7.67;;;18.00;50.40;;;;;;5100978;28;35926;-78
2021/05/11 07:46:20;;;;;;;11.37;8.87;;;18.10;49.60;;;;;;5116582;27;39655;-75
2021/05/11 07:52:01;;;;;;;11.83;8.20;;;18.10;49.10;;;;;;5099178;27;38193;-77
2021/05/11 08:16:56;;;;;;;14.90;6.90;;;18.50;47.90;;;;;;5120223;27;37046;-78
2021/05/11 08:19:42;;;;;;;7.40;6.37;;;18.80;47.10;;;;;;5115609;27;39784;-77
2021/05/11 08:22:33;;;;;;;10.30;6.97;;;19.00;46.50;;;;;;5110632;27;40078;-77
2021/05/11 08:27:45;;;;;;;7.87;6.60;;;19.30;46.00;;;;;;5093274;27;37152;-78
2021/05/11 08:30:15;;;;;;;8.97;6.50;;;19.40;45.90;;;;;;5131714;27;39984;-78
2021/05/11 08:32:46;;;;;;;9.40;6.80;;;19.50;45.50;;;;;;5135910;27;39162;-78
2021/05/11 08:35:14;;;;;;;9.10;6.63;;;19.60;45.20;;;;;;5118256;27;38501;-78
2021/05/11 08:37:41;;;;;;;15.37;6.80;;;19.80;45.30;;;;;;5136423;27;37493;-77
2021/05/11 08:40:09;;;;;;;10.97;6.60;;;20.00;45.30;;;;;;5136438;27;40083;-79
2021/05/11 08:42:36;;;;;;;6.90;6.20;;;20.10;43.90;;;;;;5141184;27;38974;-78
2021/05/11 08:45:06;;;;;;;14.93;6.77;;;20.20;43.90;;;;;;5135719;27;38257;-78
2021/05/11 08:47:35;;;;;;;7.73;5.50;;;20.20;43.90;;;;;;5142180;27;37655;-77
2021/05/11 08:50:04;;;;;;;9.00;6.63;;;20.20;44.00;;;;;;5114990;27;38485;-78
2021/05/11 08:52:48;;;;;;;11.30;7.30;;;20.30;44.10;;;;;;5133312;27;39789;-79
2021/05/11 08:55:33;;;;;;;8.33;6.53;;;20.40;44.10;;;;;;5134780;27;38098;-78
2021/05/11 09:06:42;;;;;;;7.17;6.47;;;19.60;45.20;;;;;;5140925;27;38223;-78
2021/05/11 09:09:24;;;;;;;12.43;7.37;;;19.50;45.10;;;;;;5131059;27;37955;-78
2021/05/11 09:26:09;;;;;;;13.33;6.40;;;19.60;44.60;;;;;;5125326;27;37570;-78
2021/05/11 09:28:39;;;;;;;8.10;5.87;;;19.60;44.40;;;;;;5132762;27;39163;-78
2021/05/11 09:31:34;;;;;;;5.70;4.90;;;19.70;44.50;;;;;;5137003;27;38331;-79
2021/05/11 09:34:10;;;;;;;5.77;5.17;;;19.80;44.40;;;;;;5125768;27;40648;-78
2021/05/11 09:51:09;;;;;;;6.83;5.37;;;20.10;42.70;;;;;;5153721;27;39024;-75
2021/05/11 09:56:50;;;;;;;6.33;5.43;;;20.00;43.10;;;;;;5149633;27;39927;-77
2021/05/11 10:36:19;;;;;;;8.03;5.27;;;21.00;41.90;;;;;;5118812;27;38859;-78
2021/05/11 10:41:43;;;;;;;8.70;6.43;;;21.00;41.50;;;;;;5135813;27;38183;-79
2021/05/11 10:44:52;;;;;;;6.63;5.20;;;21.00;41.60;;;;;;5141499;27;38423;-77
2021/05/11 10:47:18;;;;;;;7.53;4.80;;;21.10;41.70;;;;;;5136330;27;39875;-78
2021/05/11 10:49:45;;;;;;;5.30;4.73;;;21.00;41.10;;;;;;5124670;27;36708;-77
2021/05/11 10:52:16;;;;;;;4.67;4.27;;;20.90;41.00;;;;;;5143455;27;37369;-76
2021/05/11 10:54:49;;;;;;;17.53;10.23;;;20.70;41.70;;;;;;5147699;27;39813;-78
2021/05/11 10:57:31;;;;;;;6.97;4.87;;;20.80;42.00;;;;;;5139045;27;40061;-80
2021/05/11 11:00:14;;;;;;;6.07;4.30;;;20.80;41.50;;;;;;5148072;27;38386;-77
2021/05/11 11:02:45;;;;;;;4.60;3.87;;;20.80;41.40;;;;;;5140150;27;37105;-79
2021/05/11 11:05:13;;;;;;;7.97;4.53;;;20.90;41.10;;;;;;5145454;27;39699;-77
2021/05/11 11:07:42;;;;;;;6.93;5.00;;;20.90;41.40;;;;;;5131272;27;37852;-78
2021/05/11 11:10:10;;;;;;;8.70;4.10;;;21.10;41.50;;;;;;5135342;27;38189;-77
2021/05/11 11:12:40;;;;;;;6.07;4.57;;;21.20;40.70;;;;;;5139949;27;37159;-76
2021/05/11 11:15:17;;;;;;;4.50;4.10;;;21.20;41.00;;;;;;5139382;27;40353;-77
2021/05/11 11:17:49;;;;;;;6.77;4.30;;;21.40;40.70;;;;;;5129673;27;39038;-78
2021/05/11 11:20:31;;;;;;;4.70;4.20;;;21.40;40.70;;;;;;5105591;27;36959;-77
2021/05/11 11:25:59;;;;;;;5.93;4.67;;;21.10;40.90;;;;;;5131516;27;40417;-77
2021/05/11 11:28:30;;;;;;;5.10;3.57;;;20.80;41.00;;;;;;5128903;27;39830;-77
2021/05/11 11:30:58;;;;;;;6.93;4.63;;;20.80;41.60;;;;;;5128052;27;38258;-77
2021/05/11 11:33:25;;;;;;;5.27;3.40;;;20.70;41.60;;;;;;5114016;27;36318;-76
2021/05/11 11:35:52;;;;;;;3.80;3.40;;;20.70;41.90;;;;;;5121476;27;38057;-77
2021/05/11 11:38:27;;;;;;;4.30;3.37;;;20.60;41.50;;;;;;5134639;27;38961;-76
2021/05/11 11:40:59;;;;;;;3.93;3.50;;;20.70;41.60;;;;;;5132992;27;38853;-77
2021/05/11 11:43:32;;;;;;;6.43;3.40;;;20.90;41.40;;;;;;5115772;27;35898;-76
2021/05/11 11:46:00;;;;;;;4.80;3.03;;;21.00;41.10;;;;;;5137281;27;39496;-77
2021/05/11 11:48:27;;;;;;;5.40;3.93;;;21.20;41.30;;;;;;5136846;27;39019;-77
2021/05/11 11:51:01;;;;;;;4.10;3.63;;;21.50;41.10;;;;;;5102878;27;36723;-77
2021/05/11 11:53:33;;;;;;;4.83;3.27;;;21.70;39.90;;;;;;5132038;27;37821;-78
2021/05/11 11:56:25;;;;;;;5.33;3.50;;;21.90;40.10;;;;;;5093635;28;37607;-76
2021/05/11 11:59:03;;;;;;;4.27;2.87;;;22.10;39.30;;;;;;5138197;27;39436;-77
2021/05/11 12:01:33;;;;;;;10.97;3.97;;;22.30;38.90;;;;;;5143956;27;38716;-78
2021/05/11 12:04:07;;;;;;;4.13;3.00;;;22.30;38.70;;;;;;5125273;27;37102;-77
2021/05/11 12:06:36;;;;;;;6.03;3.53;;;22.40;38.00;;;;;;5131479;27;38844;-76
2021/05/11 12:09:04;;;;;;;5.10;3.63;;;22.40;38.50;;;;;;5137875;27;40113;-78
2021/05/11 12:11:34;;;;;;;6.17;3.80;;;22.40;38.40;;;;;;5133289;27;38319;-78
2021/05/11 12:14:05;;;;;;;6.20;3.20;;;22.30;38.50;;;;;;5149711;27;36892;-79
2021/05/11 12:16:41;;;;;;;6.90;3.40;;;22.40;38.80;;;;;;5126562;27;40110;-78
2021/05/11 12:19:12;;;;;;;6.73;3.83;;;22.40;38.50;;;;;;5130501;27;38685;-79
2021/05/11 12:21:51;;;;;;;4.77;4.00;;;22.70;38.70;;;;;;5131321;27;37928;-79
2021/05/11 12:24:19;;;;;;;3.87;3.57;;;23.00;38.20;;;;;;5112379;27;36709;-78
2021/05/11 12:26:48;;;;;;;4.20;3.80;;;23.20;37.80;;;;;;5135113;27;40367;-79
2021/05/11 12:29:17;;;;;;;4.20;3.80;;;23.30;37.40;;;;;;5133559;27;39784;-78
2021/05/11 12:31:47;;;;;;;5.83;4.30;;;23.00;37.60;;;;;;5142395;27;39045;-79
2021/05/11 12:34:21;;;;;;;5.30;4.43;;;22.80;38.10;;;;;;5117700;27;35755;-78
2021/05/11 12:36:56;;;;;;;5.33;3.90;;;22.50;38.20;;;;;;5139797;27;39361;-77
2021/05/11 12:39:34;;;;;;;8.67;4.77;;;22.20;38.80;;;;;;5134240;27;39329;-76
2021/05/11 12:42:20;;;;;;;10.47;5.47;;;22.10;39.10;;;;;;5137889;27;38797;-77
2021/05/11 12:45:01;;;;;;;5.50;4.30;;;21.90;39.40;;;;;;5136477;27;37365;-77
2021/05/11 12:47:46;;;;;;;5.27;4.70;;;21.80;39.70;;;;;;5115381;27;36461;-78
2021/05/11 12:50:15;;;;;;;6.67;5.73;;;21.80;39.60;;;;;;5132251;27;39299;-77
2021/05/11 12:52:42;;;;;;;7.83;5.97;;;21.80;39.60;;;;;;5137777;27;37550;-78
2021/05/11 12:55:17;;;;;;;7.43;6.20;;;21.90;39.20;;;;;;5131206;27;37795;-78
2021/05/11 12:57:57;;;;;;;7.77;6.67;;;22.10;39.20;;;;;;5137521;27;39693;-78
2021/05/11 13:00:37;;;;;;;7.43;6.37;;;22.20;38.80;;;;;;5135624;27;37533;-78
2021/05/11 13:03:18;;;;;;;8.50;7.03;;;22.30;39.00;;;;;;5130206;27;38128;-77
2021/05/11 13:17:00;;;;;;;9.37;8.47;;;22.30;39.50;;;;;;5110030;27;37017;-78
2021/05/11 13:22:24;;;;;;;13.03;8.20;;;21.70;40.40;;;;;;5138634;27;39758;-76
2021/05/11 13:28:00;;;;;;;9.87;8.20;;;21.20;42.20;;;;;;5057069;28;37265;-78
2021/05/11 13:30:42;;;;;;;10.10;7.80;;;20.90;42.70;;;;;;5132588;27;39606;-78
2021/05/11 13:33:18;;;;;;;9.30;8.40;;;20.60;44.00;;;;;;5150134;27;39264;-77
2021/05/11 13:35:46;;;;;;;9.30;7.93;;;20.40;44.30;;;;;;5117943;27;36472;-77
2021/05/11 13:38:14;;;;;;;9.43;8.43;;;20.20;45.00;;;;;;5147398;27;36064;-77
2021/05/11 13:40:41;;;;;;;9.40;8.47;;;20.10;45.90;;;;;;5147962;27;39303;-77
2021/05/11 13:43:26;;;;;;;9.93;9.03;;;19.90;46.40;;;;;;5139446;27;40422;-76
2021/05/11 13:45:54;;;;;;;10.50;7.70;;;19.70;48.10;;;;;;5152380;27;38418;-77
2021/05/11 13:48:23;;;;;;;8.87;8.00;;;19.50;47.30;;;;;;5130871;27;36740;-78
2021/05/11 13:50:56;;;;;;;8.87;7.80;;;19.40;49.10;;;;;;5114336;27;38480;-76
2021/05/11 13:53:27;;;;;;;7.83;7.13;;;19.30;48.70;;;;;;5139460;27;39133;-78
2021/05/11 13:56:16;;;;;;;9.10;8.20;;;19.20;50.50;;;;;;5140653;27;36626;-78
2021/05/11 14:04:31;;;;;;;9.90;8.53;;;18.90;51.20;;;;;;5144046;27;39420;-77
2021/05/11 14:07:00;;;;;;;10.23;9.20;;;18.80;52.70;;;;;;5118698;27;36662;-78
2021/05/11 14:09:35;;;;;;;10.20;9.17;;;18.80;54.10;;;;;;5119181;27;36907;-79
2021/05/11 14:12:03;;;;;;;10.90;9.77;;;18.70;55.10;;;;;;5135545;27;40333;-78
2021/05/11 14:14:32;;;;;;;10.30;9.40;;;18.60;55.40;;;;;;5135763;27;39110;-78
2021/05/11 14:16:59;;;;;;;12.40;10.70;;;18.50;55.40;;;;;;5120198;27;37171;-79
2021/05/11 14:19:28;;;;;;;11.80;10.60;;;18.30;55.30;;;;;;5143266;27;36932;-79
2021/05/11 14:21:55;;;;;;;11.30;9.80;;;18.10;55.40;;;;;;5143562;27;40304;-78
2021/05/11 14:24:23;;;;;;;8.80;8.00;;;17.80;56.10;;;;;;5138421;27;37724;-78
2021/05/11 14:26:50;;;;;;;8.53;7.67;;;17.60;56.80;;;;;;5126700;27;36718;-78
2021/05/11 14:29:17;;;;;;;8.70;7.80;;;17.50;56.90;;;;;;5143681;27;37517;-77
2021/05/11 14:31:45;;;;;;;9.67;8.77;;;17.30;57.30;;;;;;5142764;27;40285;-79
2021/05/11 14:34:13;;;;;;;12.53;9.60;;;17.30;58.00;;;;;;5139425;27;39415;-79
2021/05/11 14:36:41;;;;;;;9.37;8.47;;;17.20;58.40;;;;;;5126975;27;37955;-79
2021/05/11 14:39:08;;;;;;;9.67;8.67;;;17.20;58.40;;;;;;5121771;27;36713;-77
2021/05/11 14:41:36;;;;;;;9.73;8.87;;;17.20;58.70;;;;;;5132560;27;39922;-78
2021/05/11 14:44:04;;;;;;;11.07;9.33;;;17.20;58.40;;;;;;5139576;27;39371;-77
2021/05/11 14:46:31;;;;;;;11.60;10.20;;;17.10;59.10;;;;;;5142950;27;39036;-78
2021/05/11 14:49:00;;;;;;;13.07;10.73;;;17.10;59.80;;;;;;5140123;27;37203;-78
2021/05/11 14:51:27;;;;;;;12.67;11.37;;;17.00;59.70;;;;;;5136768;27;39939;-78
2021/05/11 14:53:54;;;;;;;12.40;11.30;;;16.90;60.60;;;;;;5126340;27;38649;-78
2021/05/11 14:56:24;;;;;;;13.00;11.63;;;16.80;60.60;;;;;;5147784;27;36694;-78
2021/05/11 14:58:52;;;;;;;11.90;10.70;;;16.60;61.00;;;;;;5144022;27;38128;-78
2021/05/11 15:01:19;;;;;;;11.67;10.50;;;16.40;61.30;;;;;;5153852;27;39380;-79
2021/05/11 15:03:46;;;;;;;12.20;10.90;;;16.20;61.50;;;;;;5134846;27;40098;-77
2021/05/11 15:06:13;;;;;;;10.80;9.80;;;16.10;61.90;;;;;;5139137;27;38902;-77
2021/05/11 15:08:40;;;;;;;10.90;9.47;;;16.00;61.70;;;;;;5129856;27;37430;-77
2021/05/11 15:11:08;;;;;;;12.87;9.77;;;15.90;62.00;;;;;;5113785;27;38663;-76
2021/05/11 15:13:35;;;;;;;10.60;9.07;;;15.90;62.70;;;;;;5132354;27;40130;-76
2021/05/11 15:16:07;;;;;;;12.00;9.03;;;15.90;63.10;;;;;;5126070;27;36695;-76
2021/05/11 15:18:34;;;;;;;15.50;9.20;;;15.80;63.10;;;;;;5146850;27;38082;-76
2021/05/11 15:21:01;;;;;;;9.43;8.53;;;15.70;63.10;;;;;;5134591;27;40221;-76
2021/05/11 15:23:31;;;;;;;10.93;8.73;;;15.70;63.80;;;;;;5139785;27;39821;-75
2021/05/11 15:25:58;;;;;;;9.60;8.70;;;15.70;64.00;;;;;;5132936;27;38212;-76
2021/05/11 15:28:25;;;;;;;10.13;9.10;;;15.70;64.30;;;;;;5149487;27;37489;-75
2021/05/11 15:30:56;;;;;;;10.13;9.00;;;15.60;64.70;;;;;;5123132;27;38553;-76
2021/05/11 15:33:25;;;;;;;9.83;8.83;;;15.50;64.70;;;;;;5141476;27;40361;-77
2021/05/11 15:35:52;;;;;;;9.63;8.57;;;15.40;65.20;;;;;;5141579;27;37926;-76
2021/05/11 15:38:19;;;;;;;11.10;8.50;;;15.40;66.10;;;;;;5136638;27;35970;-77
2021/05/11 15:40:47;;;;;;;9.57;8.67;;;15.30;66.50;;;;;;5121479;27;38607;-77
2021/05/11 15:43:14;;;;;;;14.17;9.37;;;15.20;66.80;;;;;;5142681;27;38590;-75
2021/05/11 15:45:42;;;;;;;10.60;9.60;;;15.10;66.90;;;;;;5120463;27;37718;-78
2021/05/11 15:48:09;;;;;;;9.33;7.30;;;15.10;67.30;;;;;;5125785;27;38348;-75
2021/05/11 15:50:39;;;;;;;9.20;7.00;;;15.00;67.10;;;;;;5137439;27;39478;-76
2021/05/11 15:53:09;;;;;;;10.97;8.37;;;14.90;67.50;;;;;;5125469;27;38051;-76
2021/05/11 15:55:38;;;;;;;9.97;8.33;;;14.90;68.40;;;;;;5133057;27;36624;-75
2021/05/11 15:58:06;;;;;;;9.63;8.63;;;14.90;68.70;;;;;;5152089;27;37268;-77
2021/05/11 16:00:35;;;;;;;10.63;8.03;;;14.90;68.70;;;;;;5145954;27;39654;-76
2021/05/11 16:03:04;;;;;;;11.10;9.30;;;14.90;68.90;;;;;;5157785;27;39638;-76
2021/05/11 16:05:34;;;;;;;15.00;12.33;;;14.90;69.40;;;;;;5147800;27;38138;-77
2021/05/11 16:08:03;;;;;;;16.07;13.80;;;14.90;69.50;;;;;;5137124;27;37141;-76
2021/05/11 16:10:36;;;;;;;15.23;13.17;;;14.90;69.90;;;;;;5124809;27;39996;-76
2021/05/11 16:13:05;;;;;;;14.60;13.10;;;14.90;69.90;;;;;;5133278;27;38700;-77
2021/05/11 16:15:34;;;;;;;15.57;12.13;;;14.80;70.30;;;;;;5132557;27;38179;-78
2021/05/11 16:18:05;;;;;;;14.13;12.10;;;14.80;70.00;;;;;;5139099;27;37924;-76